Time;durP1;ratioP1;P1;durP2;ratioP2;P2;SDS_P1;SDS_P2;PMS_P1;PMS_P2;Temp;Humidity;BMP_temperature;BMP_pressure;BME280_temperature;BME280_humidity;BME280_pressure;Samples;Min_cycle;Max_cycle;Signal;HPM_P1;HPM_P2
2024/04/08 00:00:20;;;;;;;;;;;;;;;21.10;53.34;100755.81;2237177;26;5796;-71
2024/04/08 00:01:22;;;;;;;;;;;;;;;21.10;53.40;100758.69;2227400;26;2546;-71
2024/04/08 00:02:23;;;;;;;;;;;;;;;21.10;53.20;100757.97;2223683;26;2326;-72
2024/04/08 00:03:25;;;;;;;;;;;;;;;21.11;53.21;100748.66;2220786;26;2502;-71
2024/04/08 00:04:26;;;;;;;;;;;;;;;21.10;53.56;100757.97;2221332;26;2227;-71
2024/04/08 00:05:28;;;;;;;;;;;;;;;21.10;53.61;100769.47;2227173;26;2501;-71
2024/04/08 00:06:29;;;;;;;;;;;;;;;21.10;53.46;100757.97;2227627;26;2541;-71
2024/04/08 00:07:31;;;;;;;;;;;;;;;21.09;53.33;100762.97;2225157;26;2146;-71
2024/04/08 00:08:32;;;;;;;;;;;;;;;21.09;53.57;100767.97;2226882;26;2204;-72
2024/04/08 00:09:34;;;;;;;;;;;;;;;21.10;53.43;100763.72;2227874;26;2246;-71
2024/04/08 00:10:35;;;;;;;;;;;;;;;21.11;53.54;100759.44;2222900;26;2349;-71
2024/04/08 00:11:37;;;;;;;;;;;;;;;21.11;53.09;100765.94;2229359;26;2187;-71
2024/04/08 00:12:42;;;;;;;;;;;;;;;21.11;53.31;100763.03;2225713;26;2373;-71
2024/04/08 00:13:43;;;;;;;;;;;;;;;21.11;53.09;100765.19;2217664;26;2539;-72
2024/04/08 00:14:45;;;;;;;;;;;;;;;21.11;53.37;100765.19;2226412;26;2319;-72
2024/04/08 00:15:46;;;;;;;;;;;;;;;21.10;53.06;100764.47;2225416;26;2382;-71
2024/04/08 00:16:48;;;;;;;;;;;;;;;21.11;53.45;100759.44;2225854;26;2374;-71
2024/04/08 00:17:49;;;;;;;;;;;;;;;21.11;53.13;100762.31;2219276;26;1999;-72
2024/04/08 00:18:51;;;;;;;;;;;;;;;21.10;53.08;100763.72;2226588;26;2386;-72
2024/04/08 00:19:52;;;;;;;;;;;;;;;21.11;53.41;100762.31;2221462;26;2457;-71
2024/04/08 00:21:04;;;;;;;;;;;;;;;21.11;53.08;100759.44;2225003;26;2398;-72
2024/04/08 00:22:05;;;;;;;;;;;;;;;21.11;53.23;100763.03;2223990;26;2274;-71
2024/04/08 00:23:07;;;;;;;;;;;;;;;21.11;53.37;100770.94;2225277;26;2500;-71
2024/04/08 00:24:08;;;;;;;;;;;;;;;21.11;53.18;100770.94;2224221;26;2494;-72
2024/04/08 00:25:10;;;;;;;;;;;;;;;21.10;53.45;100775.25;2225328;26;2231;-71
2024/04/08 00:26:11;;;;;;;;;;;;;;;21.10;53.09;100769.47;2221568;26;2424;-71
2024/04/08 00:27:13;;;;;;;;;;;;;;;21.10;53.07;100773.09;2223828;26;2162;-72
2024/04/08 00:28:14;;;;;;;;;;;;;;;21.10;53.54;100769.47;2223210;26;2433;-71
2024/04/08 00:29:16;;;;;;;;;;;;;;;21.09;53.23;100762.97;2223087;26;2131;-71
2024/04/08 00:30:17;;;;;;;;;;;;;;;21.09;53.53;100767.97;2224001;26;6107;-71
2024/04/08 00:31:19;;;;;;;;;;;;;;;21.10;53.19;100769.47;2224995;26;2321;-71
2024/04/08 00:32:20;;;;;;;;;;;;;;;21.11;53.31;100770.94;2225237;26;2319;-71
2024/04/08 00:33:22;;;;;;;;;;;;;;;21.10;53.14;100766.59;2227568;26;2307;-71
2024/04/08 00:34:23;;;;;;;;;;;;;;;21.09;53.13;100756.47;2222814;26;2501;-72
2024/04/08 00:35:24;;;;;;;;;;;;;;;21.08;53.08;100752.13;2220560;26;2402;-71
2024/04/08 00:36:26;;;;;;;;;;;;;;;21.09;53.03;100744.94;2220568;26;2267;-72
2024/04/08 00:37:27;;;;;;;;;;;;;;;21.09;53.55;100739.19;2238475;26;2601;-71
2024/04/08 00:38:29;;;;;;;;;;;;;;;21.10;53.25;100740.69;2239408;26;2373;-72
2024/04/08 00:39:32;;;;;;;;;;;;;;;21.09;53.08;100734.16;2224537;26;2531;-71
2024/04/08 00:40:37;;;;;;;;;;;;;;;21.09;53.36;100733.44;2218219;26;2028;-75
2024/04/08 00:41:38;;;;;;;;;;;;;;;21.09;52.97;100737.03;2221702;26;2207;-74
2024/04/08 00:42:40;;;;;;;;;;;;;;;21.08;52.97;100734.84;2226961;26;2088;-75
2024/04/08 00:43:42;;;;;;;;;;;;;;;21.08;53.05;100743.47;2227984;26;2203;-69
2024/04/08 00:44:43;;;;;;;;;;;;;;;21.09;53.11;100747.81;2219937;26;2358;-74
2024/04/08 00:45:48;;;;;;;;;;;;;;;21.08;53.43;100755.00;2225107;26;2562;-74
2024/04/08 00:46:50;;;;;;;;;;;;;;;21.09;53.55;100759.34;2222071;26;2112;-74
2024/04/08 00:47:51;;;;;;;;;;;;;;;21.09;52.92;100759.34;2222042;26;2140;-75
2024/04/08 00:48:54;;;;;;;;;;;;;;;21.09;53.12;100762.22;2221043;26;2326;-74
2024/04/08 00:49:56;;;;;;;;;;;;;;;21.10;53.00;100740.69;2213151;26;2362;-74
2024/04/08 00:50:57;;;;;;;;;;;;;;;21.08;52.99;100720.44;2214611;26;2251;-74
2024/04/08 00:51:59;;;;;;;;;;;;;;;21.08;53.02;100708.94;2221374;26;2143;-74
2024/04/08 00:53:01;;;;;;;;;;;;;;;21.07;53.10;100724.72;2220079;26;2268;-74
2024/04/08 00:54:02;;;;;;;;;;;;;;;21.08;53.58;100726.19;2219629;26;2203;-74
2024/04/08 00:55:04;;;;;;;;;;;;;;;21.08;53.38;100726.94;2215564;26;2406;-74
2024/04/08 00:56:06;;;;;;;;;;;;;;;21.08;53.26;100723.31;2219461;26;2577;-74
2024/04/08 00:57:09;;;;;;;;;;;;;;;21.07;53.16;100718.94;2217723;26;2441;-74
2024/04/08 00:58:11;;;;;;;;;;;;;;;21.07;53.12;100708.19;2211102;26;2366;-74
2024/04/08 00:59:13;;;;;;;;;;;;;;;21.09;53.28;100704.66;2215009;26;2107;-74
2024/04/08 01:00:15;;;;;;;;;;;;;;;21.08;53.51;100680.13;2217281;26;5863;-74
2024/04/08 01:01:18;;;;;;;;;;;;;;;21.07;53.33;100675.78;2219435;26;2428;-74
2024/04/08 01:02:19;;;;;;;;;;;;;;;21.06;53.21;100665.66;2217358;26;2403;-74
2024/04/08 01:03:21;;;;;;;;;;;;;;;21.06;53.29;100652.00;2212400;26;2264;-74
2024/04/08 01:04:22;;;;;;;;;;;;;;;21.07;53.16;100638.34;2220326;26;2091;-75
2024/04/08 01:05:24;;;;;;;;;;;;;;;21.06;53.11;100619.59;2214966;26;2286;-74
2024/04/08 01:06:26;;;;;;;;;;;;;;;21.05;53.52;100604.47;2222209;26;2286;-74
2024/04/08 01:07:27;;;;;;;;;;;;;;;21.05;53.59;100589.31;2217837;26;2378;-74
2024/04/08 01:08:29;;;;;;;;;;;;;;;21.04;53.33;100576.34;2221928;26;2367;-74
2024/04/08 01:09:31;;;;;;;;;;;;;;;21.04;53.54;100559.78;2215357;26;2325;-75
2024/04/08 01:10:32;;;;;;;;;;;;;;;21.04;53.25;100559.78;2221141;26;2376;-74
2024/04/08 01:11:34;;;;;;;;;;;;;;;21.04;53.64;100559.06;2221375;26;2206;-74
2024/04/08 01:12:36;;;;;;;;;;;;;;;21.04;53.35;100571.31;2217956;26;2332;-74
2024/04/08 01:13:37;;;;;;;;;;;;;;;21.04;53.59;100576.34;2221749;26;2290;-74
2024/04/08 01:14:39;;;;;;;;;;;;;;;21.04;53.01;100584.97;2214697;26;2219;-74
2024/04/08 01:15:41;;;;;;;;;;;;;;;21.05;53.11;100586.44;2220622;26;2339;-74
2024/04/08 01:16:42;;;;;;;;;;;;;;;21.06;53.33;100608.09;2222126;26;2075;-75
2024/04/08 01:17:45;;;;;;;;;;;;;;;21.05;53.21;100606.59;2219536;26;2378;-74
2024/04/08 01:18:46;;;;;;;;;;;;;;;21.07;53.12;100632.59;2220596;26;2381;-75
2024/04/08 01:19:48;;;;;;;;;;;;;;;21.06;53.22;100643.38;2220548;26;2348;-74
2024/04/08 01:20:50;;;;;;;;;;;;;;;21.06;53.36;100648.38;2220366;26;2299;-74
2024/04/08 01:21:51;;;;;;;;;;;;;;;21.05;53.30;100659.16;2221422;26;2087;-74
2024/04/08 01:22:54;;;;;;;;;;;;;;;21.06;53.45;100672.16;2220619;26;2369;-74
2024/04/08 01:23:56;;;;;;;;;;;;;;;21.06;53.42;100689.44;2216208;26;2410;-74
2024/04/08 01:24:58;;;;;;;;;;;;;;;21.06;53.18;100706.69;2215236;26;2291;-75
2024/04/08 01:25:59;;;;;;;;;;;;;;;21.07;53.11;100713.19;2212369;26;2107;-74
2024/04/08 01:27:01;;;;;;;;;;;;;;;21.07;53.11;100718.94;2212582;26;2326;-75
2024/04/08 01:28:02;;;;;;;;;;;;;;;21.06;53.32;100731.88;2210737;26;2422;-74
2024/04/08 01:29:04;;;;;;;;;;;;;;;21.06;53.48;100735.50;2215267;26;2280;-74
2024/04/08 01:30:06;;;;;;;;;;;;;;;21.07;53.21;100742.75;2209653;26;5881;-75
2024/04/08 01:31:08;;;;;;;;;;;;;;;21.06;53.55;100735.50;2217394;26;2554;-74
2024/04/08 01:32:09;;;;;;;;;;;;;;;21.06;53.10;100735.50;2221836;26;2096;-74
2024/04/08 01:33:10;;;;;;;;;;;;;;;21.06;53.25;100738.38;2221626;26;2018;-74
2024/04/08 01:34:12;;;;;;;;;;;;;;;21.06;53.17;100746.28;2214362;26;2360;-75
2024/04/08 01:35:13;;;;;;;;;;;;;;;21.06;53.39;100734.75;2219222;26;2378;-74
2024/04/08 01:36:15;;;;;;;;;;;;;;;21.05;52.95;100734.03;2220596;26;2246;-74
2024/04/08 01:37:16;;;;;;;;;;;;;;;21.05;53.36;100721.75;2220509;26;2222;-74
2024/04/08 01:38:18;;;;;;;;;;;;;;;21.06;53.39;100723.25;2219390;26;2176;-75
2024/04/08 01:39:19;;;;;;;;;;;;;;;21.05;53.02;100716.75;2214686;26;2119;-74
2024/04/08 01:40:21;;;;;;;;;;;;;;;21.05;53.61;100721.75;2215228;26;2262;-74
2024/04/08 01:41:22;;;;;;;;;;;;;;;21.05;53.13;100713.09;2215302;26;2620;-74
2024/04/08 01:42:24;;;;;;;;;;;;;;;21.03;53.08;100713.78;2216196;26;2000;-74
2024/04/08 01:43:25;;;;;;;;;;;;;;;21.04;53.43;100712.38;2214428;26;2285;-74
2024/04/08 01:44:27;;;;;;;;;;;;;;;21.04;53.26;100718.13;2217572;26;2286;-75
2024/04/08 01:45:28;;;;;;;;;;;;;;;21.05;53.58;100715.97;2217113;26;2485;-74
2024/04/08 01:46:30;;;;;;;;;;;;;;;21.05;53.27;100722.50;2219906;26;2120;-74
2024/04/08 01:47:31;;;;;;;;;;;;;;;21.05;53.55;100727.50;2219012;26;2415;-74
2024/04/08 01:48:33;;;;;;;;;;;;;;;21.05;53.29;100724.63;2215538;26;2123;-75
2024/04/08 01:49:34;;;;;;;;;;;;;;;21.05;53.26;100721.75;2218652;26;2410;-74
2024/04/08 01:50:36;;;;;;;;;;;;;;;21.05;53.37;100727.50;2216229;26;2406;-74
2024/04/08 01:51:37;;;;;;;;;;;;;;;21.05;53.36;100724.63;2213683;26;2402;-75
2024/04/08 01:52:39;;;;;;;;;;;;;;;21.05;53.00;100727.50;2216152;26;2458;-74
2024/04/08 01:53:40;;;;;;;;;;;;;;;21.05;53.49;100727.50;2220985;26;2736;-74
2024/04/08 01:54:42;;;;;;;;;;;;;;;21.05;53.46;100724.63;2219869;26;2349;-74
2024/04/08 01:55:43;;;;;;;;;;;;;;;21.05;53.11;100724.63;2219266;26;2335;-75
2024/04/08 01:56:45;;;;;;;;;;;;;;;21.04;53.25;100726.03;2213534;26;2370;-74
2024/04/08 01:57:48;;;;;;;;;;;;;;;21.04;53.34;100723.16;2218202;26;2363;-74
2024/04/08 01:58:50;;;;;;;;;;;;;;;21.03;53.11;100715.94;2218568;26;2223;-74
2024/04/08 01:59:51;;;;;;;;;;;;;;;21.02;53.34;100711.56;2219454;26;2358;-75
2024/04/08 02:00:53;;;;;;;;;;;;;;;21.03;53.38;100713.78;2216152;26;5832;-74
2024/04/08 02:01:54;;;;;;;;;;;;;;;21.02;53.07;100700.03;2220431;26;2072;-74
2024/04/08 02:02:56;;;;;;;;;;;;;;;21.02;53.54;100694.28;2221651;26;2200;-74
2024/04/08 02:03:57;;;;;;;;;;;;;;;21.03;53.33;100702.25;2216449;26;2330;-74
2024/04/08 02:04:59;;;;;;;;;;;;;;;21.02;53.38;100700.03;2217019;26;2371;-74
2024/04/08 02:06:00;;;;;;;;;;;;;;;21.01;53.21;100696.44;2218873;26;2382;-74
2024/04/08 02:07:01;;;;;;;;;;;;;;;21.01;53.16;100689.94;2220823;26;2326;-74
2024/04/08 02:08:03;;;;;;;;;;;;;;;21.03;53.44;100690.03;2220551;26;2093;-75
2024/04/08 02:09:04;;;;;;;;;;;;;;;21.02;53.58;100682.75;2215901;26;2317;-75
2024/04/08 02:10:06;;;;;;;;;;;;;;;21.02;53.25;100688.53;2214878;26;2526;-74
2024/04/08 02:11:07;;;;;;;;;;;;;;;21.03;53.28;100684.25;2215429;26;2355;-74
2024/04/08 02:12:09;;;;;;;;;;;;;;;21.03;53.59;100678.50;2217465;26;2255;-74
2024/04/08 02:13:10;;;;;;;;;;;;;;;21.02;53.40;100677.00;2218478;26;2321;-75
2024/04/08 02:14:12;;;;;;;;;;;;;;;21.02;53.53;100677.00;2217593;26;2205;-74
2024/04/08 02:15:13;;;;;;;;;;;;;;;21.01;53.41;100669.78;2219934;26;2379;-74
2024/04/08 02:16:15;;;;;;;;;;;;;;;21.03;53.03;100672.75;2220301;26;2112;-74
2024/04/08 02:17:16;;;;;;;;;;;;;;;21.02;53.27;100665.50;2221074;26;2115;-74
2024/04/08 02:18:18;;;;;;;;;;;;;;;21.02;53.25;100671.25;2214537;26;1993;-74
2024/04/08 02:19:19;;;;;;;;;;;;;;;21.03;53.36;100667.00;2216135;26;2414;-74
2024/04/08 02:20:21;;;;;;;;;;;;;;;21.01;53.52;100653.25;2218116;26;2252;-74
2024/04/08 02:21:22;;;;;;;;;;;;;;;21.02;52.96;100662.63;2218348;26;2429;-74
2024/04/08 02:22:23;;;;;;;;;;;;;;;21.01;53.57;100664.75;2219366;26;2125;-74
2024/04/08 02:23:25;;;;;;;;;;;;;;;21.01;53.52;100664.75;2220217;26;2306;-74
2024/04/08 02:24:26;;;;;;;;;;;;;;;21.02;53.34;100662.63;2215975;26;2438;-74
2024/04/08 02:25:28;;;;;;;;;;;;;;;21.01;53.33;100661.16;2221732;26;2387;-75
2024/04/08 02:26:29;;;;;;;;;;;;;;;21.01;53.11;100659.00;2220125;26;2267;-75
2024/04/08 02:27:31;;;;;;;;;;;;;;;21.01;53.36;100659.00;2212171;26;2232;-74
2024/04/08 02:28:32;;;;;;;;;;;;;;;21.02;53.21;100665.50;2220236;26;2126;-74
2024/04/08 02:29:34;;;;;;;;;;;;;;;21.02;53.24;100662.63;2219661;26;2440;-75
2024/04/08 02:30:36;;;;;;;;;;;;;;;21.01;53.08;100659.00;2219353;26;6183;-74
2024/04/08 02:31:37;;;;;;;;;;;;;;;21.01;52.94;100658.25;2217306;26;2349;-74
2024/04/08 02:32:39;;;;;;;;;;;;;;;21.02;53.32;100659.72;2220990;26;2218;-74
2024/04/08 02:33:40;;;;;;;;;;;;;;;21.01;52.93;100659.00;2213415;26;2406;-74
2024/04/08 02:34:42;;;;;;;;;;;;;;;21.01;53.33;100664.03;2214041;26;2367;-74
2024/04/08 02:35:43;;;;;;;;;;;;;;;21.01;53.26;100661.16;2217613;26;2276;-73
2024/04/08 02:36:45;;;;;;;;;;;;;;;21.01;53.54;100646.75;2215946;26;2190;-74
2024/04/08 02:37:47;;;;;;;;;;;;;;;21.02;53.49;100653.97;2210579;26;2192;-74
2024/04/08 02:38:48;;;;;;;;;;;;;;;21.00;53.49;100651.00;2211659;26;2267;-74
2024/04/08 02:39:50;;;;;;;;;;;;;;;21.00;53.20;100645.25;2218379;26;2472;-74
2024/04/08 02:40:51;;;;;;;;;;;;;;;21.00;53.07;100651.00;2214932;26;2341;-75
2024/04/08 02:41:52;;;;;;;;;;;;;;;20.99;52.98;100647.41;2220259;26;2261;-74
2024/04/08 02:42:54;;;;;;;;;;;;;;;20.99;53.25;100646.66;2217970;26;2446;-75
2024/04/08 02:43:55;;;;;;;;;;;;;;;21.00;53.30;100651.00;2220706;26;2108;-74
2024/04/08 02:44:57;;;;;;;;;;;;;;;21.00;52.96;100645.25;2216083;26;2371;-74
2024/04/08 02:45:58;;;;;;;;;;;;;;;21.00;52.96;100642.38;2219070;26;2390;-74
2024/04/08 02:47:00;;;;;;;;;;;;;;;20.99;53.36;100643.78;2214113;26;2095;-74
2024/04/08 02:48:01;;;;;;;;;;;;;;;20.98;53.06;100645.16;2219830;26;2278;-74
2024/04/08 02:49:03;;;;;;;;;;;;;;;20.99;52.98;100646.66;2220804;26;2358;-74
2024/04/08 02:50:04;;;;;;;;;;;;;;;20.99;52.92;100647.41;2215806;26;2444;-74
2024/04/08 02:51:06;;;;;;;;;;;;;;;21.00;53.21;100645.25;2218753;26;2353;-74
2024/04/08 02:52:08;;;;;;;;;;;;;;;20.99;53.19;100643.78;2218903;26;2509;-74
2024/04/08 02:53:10;;;;;;;;;;;;;;;20.99;53.02;100643.78;2220429;26;2263;-74
2024/04/08 02:54:12;;;;;;;;;;;;;;;20.99;53.31;100649.53;2219548;26;2240;-74
2024/04/08 02:55:13;;;;;;;;;;;;;;;20.99;53.07;100652.44;2214492;26;2374;-74
2024/04/08 02:56:15;;;;;;;;;;;;;;;20.98;53.46;100654.56;2220110;26;2103;-74
2024/04/08 02:57:16;;;;;;;;;;;;;;;20.97;53.25;100649.47;2217772;26;2476;-75
2024/04/08 02:58:18;;;;;;;;;;;;;;;20.98;53.04;100648.06;2219138;26;2163;-74
2024/04/08 02:59:19;;;;;;;;;;;;;;;20.98;52.88;100648.81;2215769;26;2115;-74
2024/04/08 03:00:20;;;;;;;;;;;;;;;20.99;53.07;100646.66;2219256;26;5968;-74
2024/04/08 03:01:22;;;;;;;;;;;;;;;20.99;53.07;100643.78;2220285;26;2305;-74
2024/04/08 03:02:23;;;;;;;;;;;;;;;20.99;53.35;100649.53;2214447;26;2440;-74
2024/04/08 03:03:25;;;;;;;;;;;;;;;20.98;53.03;100643.06;2216120;26;2416;-75
2024/04/08 03:04:26;;;;;;;;;;;;;;;20.98;53.59;100636.53;2217821;26;2367;-74
2024/04/08 03:05:28;;;;;;;;;;;;;;;20.98;53.49;100642.28;2218066;26;2355;-74
2024/04/08 03:06:31;;;;;;;;;;;;;;;20.98;53.32;100642.28;2220802;26;2103;-74
2024/04/08 03:07:36;;;;;;;;;;;;;;;20.98;53.04;100643.06;2221748;26;2133;-74
2024/04/08 03:08:38;;;;;;;;;;;;;;;20.99;53.37;100643.78;2219608;26;2226;-75
2024/04/08 03:09:40;;;;;;;;;;;;;;;20.99;53.55;100649.53;2220752;26;2012;-74
2024/04/08 03:10:41;;;;;;;;;;;;;;;20.99;53.23;100643.78;2219909;26;2302;-74
2024/04/08 03:11:43;;;;;;;;;;;;;;;20.99;53.25;100646.66;2215924;26;2038;-74
2024/04/08 03:12:44;;;;;;;;;;;;;;;21.00;53.16;100645.25;2214829;26;2378;-75
2024/04/08 03:13:48;;;;;;;;;;;;;;;20.99;53.31;100649.53;2220928;26;2204;-74
2024/04/08 03:14:49;;;;;;;;;;;;;;;20.98;53.63;100648.81;2215346;26;2399;-74
2024/04/08 03:15:54;;;;;;;;;;;;;;;20.98;53.20;100653.81;2214381;26;2379;-74
2024/04/08 03:16:55;;;;;;;;;;;;;;;20.98;53.49;100656.69;2220498;26;2256;-74
2024/04/08 03:17:57;;;;;;;;;;;;;;;20.97;53.57;100653.06;2218130;26;2360;-74
2024/04/08 03:18:58;;;;;;;;;;;;;;;20.98;53.24;100653.81;2211027;26;2133;-74
2024/04/08 03:19:59;;;;;;;;;;;;;;;20.97;53.34;100658.09;2219918;26;2408;-74
2024/04/08 03:21:03;;;;;;;;;;;;;;;20.98;53.15;100656.69;2219877;26;2070;-74
2024/04/08 03:22:04;;;;;;;;;;;;;;;20.97;53.09;100663.84;2219256;26;2202;-75
2024/04/08 03:23:06;;;;;;;;;;;;;;;20.98;53.56;100656.69;2216781;26;2294;-74
2024/04/08 03:24:07;;;;;;;;;;;;;;;20.97;53.47;100649.47;2218531;26;2438;-74
2024/04/08 03:25:08;;;;;;;;;;;;;;;20.96;53.41;100650.84;2219956;26;2341;-74
2024/04/08 03:26:12;;;;;;;;;;;;;;;20.95;53.69;100652.97;2219723;26;2078;-74
2024/04/08 03:27:14;;;;;;;;;;;;;;;20.95;53.44;100644.34;2213804;26;2190;-74
2024/04/08 03:28:15;;;;;;;;;;;;;;;20.95;53.24;100652.97;2216042;26;2240;-74
2024/04/08 03:29:17;;;;;;;;;;;;;;;20.95;53.60;100652.25;2216683;26;2206;-74
2024/04/08 03:30:18;;;;;;;;;;;;;;;20.95;53.51;100655.13;2214037;26;5830;-74
2024/04/08 03:31:20;;;;;;;;;;;;;;;20.95;53.24;100650.09;2220911;26;2191;-74
2024/04/08 03:32:21;;;;;;;;;;;;;;;20.95;53.52;100655.13;2217661;26;2127;-74
2024/04/08 03:33:24;;;;;;;;;;;;;;;20.96;53.51;100650.84;2219246;26;2398;-74
2024/04/08 03:34:26;;;;;;;;;;;;;;;20.95;53.08;100652.97;2218577;26;2206;-74
2024/04/08 03:35:27;;;;;;;;;;;;;;;20.95;53.53;100649.38;2221154;26;2190;-74
2024/04/08 03:36:29;;;;;;;;;;;;;;;20.95;53.63;100652.25;2218220;26;2263;-75
2024/04/08 03:37:31;;;;;;;;;;;;;;;20.94;53.06;100651.53;2216593;26;2231;-75
2024/04/08 03:38:33;;;;;;;;;;;;;;;20.95;53.13;100646.50;2216730;26;2520;-74
2024/04/08 03:39:34;;;;;;;;;;;;;;;20.95;53.67;100640.75;2219969;26;2001;-74
2024/04/08 03:40:36;;;;;;;;;;;;;;;20.96;53.11;100640.09;2216903;26;2367;-74
2024/04/08 03:41:37;;;;;;;;;;;;;;;20.96;53.28;100642.22;2218206;26;2112;-74
2024/04/08 03:42:39;;;;;;;;;;;;;;;20.95;53.44;100643.63;2218172;26;2362;-74
2024/04/08 03:43:41;;;;;;;;;;;;;;;20.95;53.54;100643.63;2217943;26;2310;-74
2024/04/08 03:44:46;;;;;;;;;;;;;;;20.95;53.00;100643.63;2214114;26;2371;-74
2024/04/08 03:45:51;;;;;;;;;;;;;;;20.93;53.38;100645.00;2218021;26;2393;-75
2024/04/08 03:46:52;;;;;;;;;;;;;;;20.93;53.17;100642.13;2213011;26;2059;-74
2024/04/08 03:47:54;;;;;;;;;;;;;;;20.95;53.03;100626.34;2222427;26;2344;-74
2024/04/08 03:48:57;;;;;;;;;;;;;;;20.95;53.09;100637.88;2211955;26;2195;-74
2024/04/08 03:49:59;;;;;;;;;;;;;;;20.93;53.41;100642.13;2214067;26;2270;-74
2024/04/08 03:51:07;;;;;;;;;;;;;;;20.94;53.02;100637.13;2216850;26;2314;-74
2024/04/08 03:52:08;;;;;;;;;;;;;;;20.96;53.40;100645.09;2221280;26;2387;-74
2024/04/08 03:53:10;;;;;;;;;;;;;;;20.96;53.57;100645.09;2218084;26;2569;-74
2024/04/08 03:54:11;;;;;;;;;;;;;;;20.95;53.41;100641.47;2215037;26;2090;-74
2024/04/08 03:55:13;;;;;;;;;;;;;;;20.95;53.53;100637.88;2218561;26;2357;-74
2024/04/08 03:56:14;;;;;;;;;;;;;;;20.95;53.54;100637.88;2218700;26;2684;-74
2024/04/08 03:57:16;;;;;;;;;;;;;;;20.95;53.30;100647.22;2217262;26;2382;-74
2024/04/08 03:58:17;;;;;;;;;;;;;;;20.95;53.11;100627.09;2218688;26;2260;-74
2024/04/08 03:59:19;;;;;;;;;;;;;;;20.93;53.34;100647.88;2213067;26;2659;-75
2024/04/08 04:00:20;;;;;;;;;;;;;;;20.95;53.55;100649.38;2216383;26;6127;-74
2024/04/08 04:01:22;;;;;;;;;;;;;;;20.95;53.28;100646.50;2212609;26;2422;-74
2024/04/08 04:02:23;;;;;;;;;;;;;;;20.95;53.46;100652.25;2218331;26;2342;-76
2024/04/08 04:03:24;;;;;;;;;;;;;;;20.94;53.28;100642.88;2216958;26;2370;-75
2024/04/08 04:04:26;;;;;;;;;;;;;;;20.95;53.76;100649.38;2217296;26;2401;-75
2024/04/08 04:05:27;;;;;;;;;;;;;;;20.95;53.11;100640.75;2218442;26;2575;-75
2024/04/08 04:06:29;;;;;;;;;;;;;;;20.94;53.61;100642.88;2220221;26;2798;-75
2024/04/08 04:07:31;;;;;;;;;;;;;;;20.96;53.17;100627.81;2213643;26;2464;-75
2024/04/08 04:08:33;;;;;;;;;;;;;;;20.95;53.44;100621.31;2214045;26;2269;-75
2024/04/08 04:09:34;;;;;;;;;;;;;;;20.95;53.11;100626.34;2219571;26;2148;-75
2024/04/08 04:10:36;;;;;;;;;;;;;;;20.93;53.04;100624.84;2217451;26;1951;-74
2024/04/08 04:11:37;;;;;;;;;;;;;;;20.93;53.51;100624.84;2215584;26;2424;-75
2024/04/08 04:12:39;;;;;;;;;;;;;;;20.93;53.01;100616.22;2219125;26;2060;-75
2024/04/08 04:13:40;;;;;;;;;;;;;;;20.95;53.27;100615.56;2216150;26;2380;-75
2024/04/08 04:14:42;;;;;;;;;;;;;;;20.93;53.46;100619.09;2216772;26;2056;-75
2024/04/08 04:15:44;;;;;;;;;;;;;;;20.92;53.57;100617.63;2219848;26;2469;-75
2024/04/08 04:16:47;;;;;;;;;;;;;;;20.95;53.38;100620.59;2218169;26;2365;-75
2024/04/08 04:17:48;;;;;;;;;;;;;;;20.93;53.26;100619.09;2217363;26;2211;-76
2024/04/08 04:18:53;;;;;;;;;;;;;;;20.93;53.72;100621.97;2210194;26;2207;-76
2024/04/08 04:19:54;;;;;;;;;;;;;;;20.93;53.42;100619.09;2217178;26;2262;-75
2024/04/08 04:20:56;;;;;;;;;;;;;;;20.95;53.30;100617.72;2218481;26;2389;-75
2024/04/08 04:21:57;;;;;;;;;;;;;;;20.96;53.38;100610.53;2218324;26;2509;-75
2024/04/08 04:22:59;;;;;;;;;;;;;;;20.94;53.47;100602.59;2218119;26;2425;-75
2024/04/08 04:24:00;;;;;;;;;;;;;;;20.95;53.02;100603.31;2215277;26;2282;-74
2024/04/08 04:25:02;;;;;;;;;;;;;;;20.93;53.38;100584.56;2220065;26;2035;-75
2024/04/08 04:26:04;;;;;;;;;;;;;;;20.92;53.29;100585.97;2222604;26;1918;-75
2024/04/08 04:27:05;;;;;;;;;;;;;;;20.94;53.41;100588.19;2218610;26;2264;-75
2024/04/08 04:28:06;;;;;;;;;;;;;;;20.93;53.58;100590.31;2221708;26;2533;-74
2024/04/08 04:29:08;;;;;;;;;;;;;;;20.95;53.08;100603.31;2213797;26;2060;-75
2024/04/08 04:30:10;;;;;;;;;;;;;;;20.93;53.39;100604.72;2218319;26;5920;-74
2024/04/08 04:31:11;;;;;;;;;;;;;;;20.93;52.99;100604.72;2219208;26;2573;-75
2024/04/08 04:32:13;;;;;;;;;;;;;;;20.93;53.56;100619.09;2214729;26;2226;-77
2024/04/08 04:33:14;;;;;;;;;;;;;;;20.94;53.11;100625.63;2219121;26;2427;-75
2024/04/08 04:34:16;;;;;;;;;;;;;;;20.92;53.39;100629.16;2217251;26;2367;-75
2024/04/08 04:35:17;;;;;;;;;;;;;;;20.92;53.37;100632.03;2217241;26;1923;-75
2024/04/08 04:36:19;;;;;;;;;;;;;;;20.92;53.66;100634.91;2216542;26;2107;-74
2024/04/08 04:37:20;;;;;;;;;;;;;;;20.92;53.52;100629.16;2217348;26;2406;-75
2024/04/08 04:38:22;;;;;;;;;;;;;;;20.93;53.24;100624.13;2217257;26;2629;-74
2024/04/08 04:39:23;;;;;;;;;;;;;;;20.92;53.16;100629.16;2216122;26;2647;-77
2024/04/08 04:40:25;;;;;;;;;;;;;;;20.97;53.56;100629.31;2219045;26;2029;-73
2024/04/08 04:41:26;;;;;;;;;;;;;;;20.96;53.88;100633.56;2220370;26;2567;-74
2024/04/08 04:42:28;;;;;;;;;;;;;;;20.93;53.42;100619.09;2218719;26;2461;-74
2024/04/08 04:43:30;;;;;;;;;;;;;;;20.96;53.88;100622.81;2219904;26;2489;-76
2024/04/08 04:44:31;;;;;;;;;;;;;;;20.97;53.58;100612.03;2220963;26;2435;-75
2024/04/08 04:45:33;;;;;;;;;;;;;;;20.98;53.64;100625.03;2215156;26;2657;-76
2024/04/08 04:46:34;;;;;;;;;;;;;;;20.97;53.84;100617.78;2218535;26;2227;-76
2024/04/08 04:47:36;;;;;;;;;;;;;;;20.97;53.82;100623.56;2219709;26;2219;-76
2024/04/08 04:48:38;;;;;;;;;;;;;;;20.94;53.61;100622.75;2220647;26;2051;-75
2024/04/08 04:49:39;;;;;;;;;;;;;;;20.95;53.92;100626.34;2216409;26;2011;-76
2024/04/08 04:50:40;;;;;;;;;;;;;;;20.93;53.94;100624.84;2210204;26;2048;-76
2024/04/08 04:51:42;;;;;;;;;;;;;;;20.93;53.56;100624.13;2218446;26;2268;-76
2024/04/08 04:52:44;;;;;;;;;;;;;;;20.93;53.56;100624.84;2212429;26;2239;-75
2024/04/08 04:53:46;;;;;;;;;;;;;;;20.93;53.52;100629.88;2219890;26;2219;-75
2024/04/08 04:54:47;;;;;;;;;;;;;;;20.92;53.75;100629.16;2222152;26;2073;-76
2024/04/08 04:55:52;;;;;;;;;;;;;;;20.92;53.81;100625.53;2220302;26;2036;-76
2024/04/08 04:56:54;;;;;;;;;;;;;;;20.92;53.57;100629.16;2219017;26;2238;-76
2024/04/08 04:57:55;;;;;;;;;;;;;;;20.92;53.37;100629.16;2219737;26;2222;-75
2024/04/08 04:58:57;;;;;;;;;;;;;;;20.91;53.82;100636.31;2218566;26;2046;-76
2024/04/08 04:59:58;;;;;;;;;;;;;;;20.92;53.66;100634.91;2214901;26;2282;-76
2024/04/08 05:01:00;;;;;;;;;;;;;;;20.92;53.42;100634.91;2219903;26;5698;-76
2024/04/08 05:02:01;;;;;;;;;;;;;;;20.93;53.34;100641.38;2216466;26;1954;-76
2024/04/08 05:03:03;;;;;;;;;;;;;;;20.92;53.63;100645.69;2211884;26;2029;-76
2024/04/08 05:04:06;;;;;;;;;;;;;;;20.93;53.49;100635.63;2219226;26;2263;-76
2024/04/08 05:05:07;;;;;;;;;;;;;;;20.92;53.43;100637.78;2217975;26;2119;-76
2024/04/08 05:06:09;;;;;;;;;;;;;;;20.94;53.25;100642.88;2219756;26;2152;-76
2024/04/08 05:07:10;;;;;;;;;;;;;;;20.92;53.44;100637.78;2209698;26;2762;-76
2024/04/08 05:08:12;;;;;;;;;;;;;;;20.93;53.38;100641.38;2216023;26;2036;-76
2024/04/08 05:09:13;;;;;;;;;;;;;;;20.93;53.74;100635.63;2216821;26;2197;-76
2024/04/08 05:10:15;;;;;;;;;;;;;;;20.92;53.48;100640.66;2214879;26;2202;-76
2024/04/08 05:11:16;;;;;;;;;;;;;;;20.92;53.24;100646.41;2216904;26;2333;-75
2024/04/08 05:12:18;;;;;;;;;;;;;;;20.92;53.69;100646.41;2219386;26;2362;-76
2024/04/08 05:13:19;;;;;;;;;;;;;;;20.92;53.27;100645.69;2220207;26;2179;-76
2024/04/08 05:14:21;;;;;;;;;;;;;;;20.91;53.32;100650.69;2219292;26;2288;-76
2024/04/08 05:15:22;;;;;;;;;;;;;;;20.91;53.56;100656.47;2215769;26;2177;-76
2024/04/08 05:16:24;;;;;;;;;;;;;;;20.92;53.33;100655.03;2220296;26;2183;-75
2024/04/08 05:17:25;;;;;;;;;;;;;;;20.91;53.16;100650.69;2217126;26;2109;-76
2024/04/08 05:18:28;;;;;;;;;;;;;;;20.92;53.72;100657.19;2215791;26;2190;-76
2024/04/08 05:19:29;;;;;;;;;;;;;;;20.92;53.24;100663.69;2218774;26;2334;-76
2024/04/08 05:20:31;;;;;;;;;;;;;;;20.92;53.40;100655.03;2220012;26;2275;-76
2024/04/08 05:21:32;;;;;;;;;;;;;;;20.91;53.74;100664.34;2221368;26;2348;-76